Time;durP1;ratioP1;P1;durP2;ratioP2;P2;SDS_P1;SDS_P2;PMS_P1;PMS_P2;Temp;Humidity;BMP_temperature;BMP_pressure;BME280_temperature;BME280_humidity;BME280_pressure;Samples;Min_cycle;Max_cycle;Signal;HPM_P1;HPM_P2
2021/08/22 00:01:19;;;;;;;12.98;11.20;;;;;;;22.19;100.00;96361.19;4945032;28;20085;-48
2021/08/22 00:03:48;;;;;;;13.27;11.18;;;;;;;22.14;100.00;96351.06;4941945;28;20078;-47
2021/08/22 00:06:16;;;;;;;14.07;11.02;;;;;;;21.99;100.00;96351.41;4939382;28;20134;-52
2021/08/22 00:08:44;;;;;;;14.98;11.68;;;;;;;21.95;100.00;96352.06;4949212;28;20070;-48
2021/08/22 00:11:14;;;;;;;15.25;11.77;;;;;;;22.16;100.00;96354.41;4945681;28;20083;-53
2021/08/22 00:13:43;;;;;;;13.02;10.90;;;;;;;22.26;100.00;96349.34;4945945;28;20082;-50
2021/08/22 00:16:11;;;;;;;14.13;11.73;;;;;;;22.14;100.00;96355.63;4945071;28;20070;-52
2021/08/22 00:18:39;;;;;;;13.32;10.75;;;;;;;22.27;100.00;96359.06;4944953;28;20063;-49
2021/08/22 00:21:08;;;;;;;11.57;9.93;;;;;;;22.38;100.00;96357.50;4943884;28;20071;-53
2021/08/22 00:23:36;;;;;;;12.90;10.75;;;;;;;22.41;100.00;96346.31;4944369;28;20079;-49
2021/08/22 00:26:04;;;;;;;14.07;11.48;;;;;;;22.32;100.00;96347.63;4946646;28;20087;-52
2021/08/22 00:28:34;;;;;;;15.90;11.60;;;;;;;22.25;100.00;96350.38;4944525;28;20533;-52
2021/08/22 00:31:02;;;;;;;13.00;11.32;;;;;;;22.26;100.00;96343.13;4945809;28;20079;-55
2021/08/22 00:33:31;;;;;;;13.43;11.65;;;;;;;22.46;100.00;96354.50;4952755;28;20159;-53
2021/08/22 00:35:59;;;;;;;13.52;10.93;;;;;;;22.50;100.00;96344.13;4942078;28;20075;-52
2021/08/22 00:38:30;;;;;;;14.43;11.07;;;;;;;22.60;100.00;96347.13;4946241;28;20074;-48
2021/08/22 00:41:17;;;;;;;13.90;11.13;;;;;;;22.66;100.00;96343.56;4943203;28;20418;-50
2021/08/22 00:43:47;;;;;;;13.07;10.60;;;;;;;22.70;100.00;96343.94;4945130;28;20086;-54
2021/08/22 00:46:17;;;;;;;13.77;10.45;;;;;;;22.32;100.00;96344.13;4945133;28;20081;-54
2021/08/22 00:48:46;;;;;;;12.55;10.10;;;;;;;22.65;100.00;96347.31;4943800;28;20445;-53
2021/08/22 00:51:16;;;;;;;12.90;10.50;;;;;;;22.68;100.00;96335.28;4948289;28;20066;-54
2021/08/22 00:53:45;;;;;;;11.88;10.57;;;;;;;22.63;100.00;96340.50;4946251;28;20054;-50
2021/08/22 00:56:14;;;;;;;12.88;9.90;;;;;;;22.77;100.00;96330.41;4940783;28;20536;-55
2021/08/22 00:58:43;;;;;;;13.95;10.27;;;;;;;22.62;100.00;96336.19;4942849;29;20074;-48
2021/08/22 01:01:17;;;;;;;11.60;10.40;;;;;;;22.70;100.00;96338.56;4947325;28;20074;-50
2021/08/22 01:03:48;;;;;;;12.18;9.88;;;;;;;22.68;100.00;96346.88;4945064;28;20529;-52
2021/08/22 01:06:23;;;;;;;13.13;11.00;;;;;;;22.63;100.00;96337.81;4941126;28;20086;-53
2021/08/22 01:08:56;;;;;;;13.10;10.20;;;;;;;22.29;100.00;96350.75;4942939;28;20429;-50
2021/08/22 01:11:25;;;;;;;10.77;9.68;;;;;;;22.48;100.00;96341.69;4944599;28;20075;-50
2021/08/22 01:13:56;;;;;;;10.98;9.52;;;;;;;22.74;100.00;96332.50;4943487;28;20114;-52
2021/08/22 01:16:29;;;;;;;12.30;9.52;;;;;;;22.91;100.00;96329.22;4945594;28;21290;-49
2021/08/22 01:19:01;;;;;;;13.48;9.68;;;;;;;22.62;100.00;96325.44;4943722;28;20086;-54
2021/08/22 01:21:29;;;;;;;10.60;9.35;;;;;;;22.83;100.00;96322.28;4946612;28;20055;-51
2021/08/22 01:24:02;;;;;;;12.65;9.77;;;;;;;22.82;100.00;96323.34;4944162;28;20063;-52
2021/08/22 01:26:32;;;;;;;12.05;10.07;;;;;;;22.82;100.00;96323.34;4943189;28;20069;-51
2021/08/22 01:29:01;;;;;;;;;;;;;;;22.89;100.00;96323.25;4943914;28;20097;-53
2021/08/22 01:31:34;;;;;;;13.63;10.18;;;;;;;22.74;100.00;96315.56;4944010;28;20364;-53
2021/08/22 01:34:23;;;;;;;11.13;9.90;;;;;;;22.93;100.00;96313.72;4946338;28;20130;-53
2021/08/22 01:36:52;;;;;;;12.73;10.63;;;;;;;22.83;100.00;96311.53;4942606;28;20062;-49
2021/08/22 01:39:20;;;;;;;12.10;10.38;;;;;;;22.60;100.00;96311.38;4943337;28;20065;-48
2021/08/22 01:41:49;;;;;;;12.15;10.00;;;;;;;23.07;100.00;96323.25;4944215;28;20071;-51
2021/08/22 01:44:18;;;;;;;14.25;10.70;;;;;;;23.17;100.00;96318.16;4944147;28;20070;-53
2021/08/22 01:46:47;;;;;;;13.88;10.35;;;;;;;23.06;100.00;96323.50;4949281;28;20457;-51
2021/08/22 01:49:16;;;;;;;12.07;10.40;;;;;;;23.13;100.00;96325.03;4942144;28;20072;-54
2021/08/22 01:51:46;;;;;;;10.85;9.75;;;;;;;22.94;100.00;96328.78;4941883;28;20070;-48
2021/08/22 01:54:15;;;;;;;14.25;9.80;;;;;;;22.76;100.00;96332.28;4944754;28;20069;-55
2021/08/22 01:56:43;;;;;;;17.25;9.52;;;;;;;22.89;100.00;96336.69;4943554;28;20078;-51
2021/08/22 01:59:11;;;;;;;11.20;9.40;;;;;;;22.45;100.00;96334.06;4943339;28;20203;-50
2021/08/22 02:01:40;;;;;;;12.57;10.18;;;;;;;22.36;100.00;96338.09;4942558;28;20071;-49
2021/08/22 02:04:14;;;;;;;11.93;10.20;;;;;;;21.95;100.00;96338.63;4944153;28;20049;-50
2021/08/22 02:06:48;;;;;;;10.73;9.43;;;;;;;22.17;100.00;96341.78;4940733;28;20079;-53
2021/08/22 02:09:18;;;;;;;11.00;9.15;;;;;;;22.34;100.00;96340.19;4957625;28;20488;-50
2021/08/22 02:11:49;;;;;;;11.98;9.95;;;;;;;22.26;100.00;96343.13;4941060;28;20081;-53
2021/08/22 02:14:19;;;;;;;14.70;9.50;;;;;;;22.45;100.00;96354.75;4942312;28;20070;-53
2021/08/22 02:16:49;;;;;;;13.18;10.20;;;;;;;22.79;100.00;96358.75;4946198;28;20075;-52
2021/08/22 02:19:19;;;;;;;13.90;10.52;;;;;;;22.86;100.00;96355.97;4945677;28;20059;-49
2021/08/22 02:21:49;;;;;;;15.75;10.60;;;;;;;22.95;100.00;96357.31;4946967;28;20462;-51
2021/08/22 02:24:17;;;;;;;13.95;10.75;;;;;;;23.06;100.00;96358.47;4948215;28;20062;-50
2021/08/22 02:26:46;;;;;;;13.73;10.30;;;;;;;22.64;100.00;96363.63;4944080;28;20071;-51
2021/08/22 02:29:14;;;;;;;12.10;10.07;;;;;;;23.09;100.00;96357.97;4946892;28;20090;-49
2021/08/22 02:31:42;;;;;;;13.13;10.40;;;;;;;23.16;100.00;96359.56;4951757;28;20466;-50
2021/08/22 02:34:11;;;;;;;12.10;9.80;;;;;;;23.18;100.00;96359.31;4946033;28;20075;-55
2021/08/22 02:36:39;;;;;;;10.80;9.70;;;;;;;22.80;100.00;96362.25;4946001;28;20075;-52
2021/08/22 02:39:10;;;;;;;11.48;10.05;;;;;;;22.88;100.00;96368.16;4944528;28;20051;-51
2021/08/22 02:41:39;;;;;;;12.05;9.98;;;;;;;23.12;100.00;96363.72;4948076;28;20505;-49
2021/08/22 02:44:07;;;;;;;14.70;10.15;;;;;;;22.84;100.00;96360.75;4947046;28;20082;-51
2021/08/22 02:46:35;;;;;;;14.68;11.15;;;;;;;23.01;100.00;96366.38;4947506;28;21774;-53
2021/08/22 02:49:04;;;;;;;13.35;10.00;;;;;;;22.98;100.00;96362.25;4944700;28;20071;-53
2021/08/22 02:51:32;;;;;;;13.38;10.52;;;;;;;23.00;100.00;96364.75;4949613;28;20059;-50
2021/08/22 02:54:01;;;;;;;14.70;10.77;;;;;;;23.08;100.00;96367.09;4942747;28;20521;-52
2021/08/22 02:56:30;;;;;;;12.13;10.13;;;;;;;22.79;100.00;96369.50;4944664;28;20079;-51
2021/08/22 02:58:59;;;;;;;12.00;10.20;;;;;;;22.73;100.00;96371.19;4959353;28;20086;-51
2021/08/22 03:01:27;;;;;;;12.02;9.90;;;;;;;22.50;100.00;96381.78;4949023;28;20081;-49
2021/08/22 03:03:56;;;;;;;14.15;10.40;;;;;;;22.32;100.00;96384.44;4945919;28;20082;-52
2021/08/22 03:06:24;;;;;;;12.77;10.45;;;;;;;22.62;100.00;96381.88;4944627;28;20077;-53
2021/08/22 03:08:52;;;;;;;14.70;9.88;;;;;;;22.84;100.00;96376.88;4944329;28;20062;-50
2021/08/22 03:11:21;;;;;;;14.82;10.52;;;;;;;22.49;100.00;96382.81;4942919;28;20162;-51
2021/08/22 03:13:50;;;;;;;13.75;10.73;;;;;;;22.08;100.00;96376.13;4949296;28;20513;-52
2021/08/22 03:16:19;;;;;;;12.80;10.13;;;;;;;22.24;100.00;96388.22;4945301;28;20074;-54
2021/08/22 03:18:47;;;;;;;10.85;9.45;;;;;;;22.08;100.00;96399.47;4948766;28;20075;-47
2021/08/22 03:21:16;;;;;;;12.95;10.32;;;;;;;21.42;100.00;96408.78;4943449;28;20069;-49
2021/08/22 03:23:44;;;;;;;13.30;9.80;;;;;;;21.20;100.00;96438.56;4944271;28;20059;-49
2021/08/22 03:26:13;;;;;;;11.27;9.77;;;;;;;21.21;100.00;96432.16;4950412;28;20109;-49
2021/08/22 03:28:42;;;;;;;12.48;9.32;;;;;;;21.26;100.00;96452.97;4950639;28;20785;-53
2021/08/22 03:31:11;;;;;;;12.65;9.98;;;;;;;20.89;100.00;96441.94;4948079;28;20067;-50
2021/08/22 03:33:40;;;;;;;13.63;9.30;;;;;;;20.83;100.00;96461.53;4946361;28;20066;-53
2021/08/22 03:36:08;;;;;;;12.93;9.50;;;;;;;21.17;100.00;96463.13;4946938;28;20075;-49
2021/08/22 03:38:36;;;;;;;13.38;10.43;;;;;;;21.35;100.00;96450.91;4944011;28;20067;-48
2021/08/22 03:41:05;;;;;;;16.23;10.77;;;;;;;21.54;100.00;96463.41;4946711;28;20079;-48
2021/08/22 03:43:33;;;;;;;13.10;10.88;;;;;;;21.28;100.00;96475.88;4947414;28;20126;-50
2021/08/22 03:46:01;;;;;;;16.17;11.07;;;;;;;21.49;100.00;96488.19;4944416;28;20074;-49
2021/08/22 03:48:31;;;;;;;14.13;11.30;;;;;;;21.41;100.00;96490.31;4946491;28;20080;-49
2021/08/22 03:50:59;;;;;;;14.55;11.68;;;;;;;21.37;100.00;96503.31;4944579;28;20071;-48
2021/08/22 03:53:28;;;;;;;13.55;11.43;;;;;;;21.38;100.00;96510.31;4944014;28;20082;-51
2021/08/22 03:55:56;;;;;;;15.05;11.43;;;;;;;21.63;100.00;96509.63;4945790;28;20161;-56
2021/08/22 03:58:24;;;;;;;15.30;11.10;;;;;;;21.34;100.00;96527.88;4945064;28;20147;-48
2021/08/22 04:00:53;;;;;;;13.48;10.07;;;;;;;21.30;100.00;96538.19;4945235;28;20552;-54
2021/08/22 04:03:21;;;;;;;13.93;10.63;;;;;;;21.29;100.00;96535.69;4943960;28;20074;-51
2021/08/22 04:05:51;;;;;;;12.23;10.82;;;;;;;21.47;100.00;96527.84;4945172;28;20055;-49
2021/08/22 04:08:24;;;;;;;14.68;11.23;;;;;;;21.38;100.00;96537.16;4945347;28;20066;-49
2021/08/22 04:10:53;;;;;;;14.32;11.73;;;;;;;21.36;100.00;96535.72;4947523;28;20089;-49
2021/08/22 04:13:21;;;;;;;14.27;11.52;;;;;;;21.46;100.00;96536.09;4945048;28;20477;-49
2021/08/22 04:15:50;;;;;;;15.32;11.68;;;;;;;21.25;100.00;96540.66;4943890;28;20078;-51
2021/08/22 04:18:18;;;;;;;15.52;11.70;;;;;;;21.06;100.00;96547.72;4960311;28;20062;-51
2021/08/22 04:20:47;;;;;;;16.15;12.45;;;;;;;21.24;100.00;96556.97;4943353;28;20081;-49
2021/08/22 04:23:16;;;;;;;15.25;12.02;;;;;;;21.21;100.00;96557.38;4948000;28;20071;-51
2021/08/22 04:25:45;;;;;;;16.10;12.63;;;;;;;21.17;100.00;96561.53;4945747;28;20070;-49
2021/08/22 04:28:14;;;;;;;18.85;12.77;;;;;;;21.40;100.00;96556.53;4944568;28;20059;-48
2021/08/22 04:30:42;;;;;;;16.92;12.40;;;;;;;21.61;100.00;96544.72;4947435;28;20532;-53
2021/08/22 04:33:11;;;;;;;14.77;11.98;;;;;;;21.67;100.00;96548.41;4941836;28;20071;-50
2021/08/22 04:35:39;;;;;;;16.90;11.75;;;;;;;21.32;100.00;96549.50;4943738;28;20078;-49
2021/08/22 04:38:07;;;;;;;13.90;10.77;;;;;;;21.23;100.00;96556.16;4942510;28;20101;-50
2021/08/22 04:40:39;;;;;;;14.90;10.20;;;;;;;21.15;100.00;96560.91;4947881;28;20101;-50
2021/08/22 04:43:07;;;;;;;14.80;10.73;;;;;;;21.20;100.00;96561.94;4942937;28;20077;-48
2021/08/22 04:45:35;;;;;;;15.07;10.02;;;;;;;20.68;100.00;96562.75;4946374;28;20071;-51
2021/08/22 04:48:04;;;;;;;14.57;9.90;;;;;;;21.15;100.00;96560.91;4946749;28;20078;-54
2021/08/22 04:50:33;;;;;;;13.25;10.02;;;;;;;21.49;100.00;96549.91;4943686;28;20110;-50
2021/08/22 04:53:02;;;;;;;10.88;7.75;;;;;;;21.10;100.00;96540.91;4943076;28;20089;-50
2021/08/22 04:55:30;;;;;;;11.13;8.00;;;;;;;20.95;100.00;96536.78;4945175;28;20083;-52
2021/08/22 04:58:00;;;;;;;9.75;7.45;;;;;;;21.01;100.00;96534.09;4944356;28;20078;-48
2021/08/22 05:00:28;;;;;;;9.35;7.60;;;;;;;21.20;100.00;96539.66;4947134;28;20073;-52
2021/08/22 05:02:57;;;;;;;14.68;8.07;;;;;;;21.58;100.00;96549.69;4941656;28;20078;-55
2021/08/22 05:05:27;;;;;;;;;;;;;;;22.06;100.00;96534.00;4947071;28;20070;-53
2021/08/22 05:07:56;;;;;;;10.18;6.93;;;;;;;22.32;100.00;96524.97;4943545;28;19958;-53
2021/08/22 05:10:25;;;;;;;9.27;7.03;;;;;;;22.27;100.00;96514.06;4947702;28;20562;-49
2021/08/22 05:13:13;;;;;;;9.30;7.40;;;;;;;22.36;100.00;96515.41;4947385;28;20107;-48
2021/08/22 05:15:42;;;;;;;8.80;7.47;;;;;;;22.08;100.00;96523.03;4945186;28;20050;-52
2021/08/22 05:18:10;;;;;;;8.65;7.35;;;;;;;22.25;100.00;96526.88;4943524;28;20808;-53
2021/08/22 05:20:38;;;;;;;9.45;7.90;;;;;;;22.42;100.00;96514.56;4944975;28;20071;-52
2021/08/22 05:23:07;;;;;;;9.15;7.32;;;;;;;22.58;100.00;96517.75;4945481;28;20501;-54
2021/08/22 05:25:35;;;;;;;10.10;7.15;;;;;;;22.82;100.00;96518.81;4946585;28;20079;-56
2021/08/22 05:28:04;;;;;;;11.88;8.43;;;;;;;22.48;100.00;96529.00;4943026;28;20071;-52
2021/08/22 05:30:34;;;;;;;11.05;8.52;;;;;;;22.94;100.00;96517.06;4944959;28;20074;-49
2021/08/22 05:33:02;;;;;;;10.82;8.52;;;;;;;22.50;100.00;96505.41;4945229;28;20074;-48
2021/08/22 05:35:31;;;;;;;10.90;8.27;;;;;;;22.15;100.00;96499.66;4942722;28;20125;-50
2021/08/22 05:37:59;;;;;;;10.65;8.98;;;;;;;22.31;100.00;96501.81;4940609;28;20111;-51
2021/08/22 05:40:28;;;;;;;12.02;9.18;;;;;;;21.80;100.00;96495.47;4945984;28;20095;-54
2021/08/22 05:42:56;;;;;;;11.68;9.50;;;;;;;21.97;100.00;96492.31;4944402;28;20092;-53
2021/08/22 05:45:24;;;;;;;13.07;10.02;;;;;;;22.08;100.00;96491.59;4943240;28;20074;-51
2021/08/22 05:47:54;;;;;;;14.88;10.45;;;;;;;22.24;100.00;96485.75;4944766;28;20070;-51
2021/08/22 05:50:23;;;;;;;17.52;10.70;;;;;;;22.68;100.00;96488.53;4940973;28;20067;-52
2021/08/22 05:52:51;;;;;;;15.05;10.25;;;;;;;23.41;100.00;96491.31;4941834;29;20067;-50
2021/08/22 05:55:21;;;;;;;13.38;10.75;;;;;;;23.52;100.00;96487.03;4943504;28;20422;-48
2021/08/22 05:57:49;;;;;;;12.77;9.98;;;;;;;23.69;100.00;96487.28;4949366;28;20461;-54
2021/08/22 06:00:17;;;;;;;13.98;10.23;;;;;;;24.17;100.00;96487.22;4941446;28;21635;-50
2021/08/22 06:02:46;;;;;;;13.43;10.80;;;;;;;24.26;100.00;96487.75;4947629;28;20062;-49
2021/08/22 06:05:17;;;;;;;14.27;9.85;;;;;;;24.34;100.00;96503.56;4944508;28;20718;-49
2021/08/22 06:07:45;;;;;;;11.23;9.55;;;;;;;24.22;100.00;96497.31;4944044;28;20066;-52
2021/08/22 06:10:13;;;;;;;12.20;9.38;;;;;;;24.23;100.00;96492.78;4945929;28;20058;-53
2021/08/22 06:12:42;;;;;;;13.68;9.70;;;;;;;24.42;100.00;96490.84;4946809;28;20070;-48
2021/08/22 06:15:11;;;;;;;14.52;9.35;;;;;;;24.31;100.00;96487.03;4940641;28;20552;-52
2021/08/22 06:17:40;;;;;;;11.07;9.60;;;;;;;24.42;100.00;96498.94;4947763;28;20070;-53
2021/08/22 06:20:09;;;;;;;13.30;9.32;;;;;;;24.69;100.00;96499.34;4946793;28;20124;-54
2021/08/22 06:22:39;;;;;;;11.63;9.63;;;;;;;24.57;100.00;96485.81;4949508;28;20079;-50
2021/08/22 06:25:11;;;;;;;13.65;10.00;;;;;;;24.43;100.00;96495.16;4942302;28;20070;-53
2021/08/22 06:27:39;;;;;;;12.43;10.45;;;;;;;24.48;100.00;96498.81;4947059;28;20478;-51
2021/08/22 06:30:09;;;;;;;14.68;9.95;;;;;;;24.58;100.00;96509.06;4946501;28;20506;-51
2021/08/22 06:32:37;;;;;;;12.63;9.53;;;;;;;24.82;100.00;96497.22;4945687;28;20411;-52
2021/08/22 06:35:06;;;;;;;14.95;10.93;;;;;;;24.92;100.00;96502.03;4943942;28;20084;-53
2021/08/22 06:37:34;;;;;;;12.35;9.30;;;;;;;24.96;100.00;96510.50;4940656;28;20495;-50
2021/08/22 06:40:05;;;;;;;12.13;9.25;;;;;;;25.62;100.00;96505.75;4925471;28;20066;-53
2021/08/22 06:42:34;;;;;;;11.70;9.52;;;;;;;25.80;100.00;96503.72;4924035;28;20552;-53
2021/08/22 06:45:03;;;;;;;13.73;9.75;;;;;;;26.09;100.00;96508.34;4928085;29;20327;-48
2021/08/22 06:47:31;;;;;;;12.55;9.75;;;;;;;26.06;100.00;96501.53;4921920;29;20617;-48
2021/08/22 06:49:59;;;;;;;13.75;9.27;;;;;;;25.88;100.00;96499.00;4895428;28;20067;-52
2021/08/22 06:52:28;;;;;;;11.70;9.50;;;;;;;26.39;100.00;96513.44;4907518;29;20526;-50
2021/08/22 06:54:56;;;;;;;9.25;8.25;;;;;;;25.94;100.00;96516.94;4922410;28;20068;-50
2021/08/22 06:57:26;;;;;;;10.95;9.63;;;;;;;25.68;100.00;96513.72;4926438;28;20071;-51
2021/08/22 06:59:54;;;;;;;12.52;9.27;;;;;;;26.03;100.00;96508.22;4920677;29;20072;-55
2021/08/22 07:02:23;;;;;;;10.60;8.50;;;;;;;25.42;100.00;96522.34;4913249;28;20071;-52
2021/08/22 07:04:52;;;;;;;10.52;8.60;;;;;;;26.01;100.00;96510.31;4931112;29;20079;-52
2021/08/22 07:07:20;;;;;;;9.90;8.68;;;;;;;24.66;100.00;96518.66;4907543;28;20087;-49
2021/08/22 07:09:48;;;;;;;11.25;8.70;;;;;;;24.86;100.00;96517.28;4907559;28;20083;-50
2021/08/22 07:12:17;;;;;;;10.50;8.55;;;;;;;25.46;100.00;96513.50;4907603;28;20067;-56
2021/08/22 07:14:46;;;;;;;9.68;8.68;;;;;;;25.69;100.00;96515.34;4906652;29;20052;-52
2021/08/22 07:17:19;;;;;;;11.43;8.35;;;;;;;25.64;100.00;96523.38;4906570;28;20475;-54
2021/08/22 07:19:48;;;;;;;10.60;8.90;;;;;;;26.00;100.00;96514.09;4929274;29;20063;-52
2021/08/22 07:22:17;;;;;;;12.02;9.00;;;;;;;25.62;100.00;96530.06;4928182;28;20094;-49
2021/08/22 07:24:45;;;;;;;10.20;8.57;;;;;;;26.54;100.00;96524.59;4926679;29;20063;-50
2021/08/22 07:27:14;;;;;;;11.48;8.75;;;;;;;26.45;100.00;96528.72;4926833;29;20098;-52
2021/08/22 07:29:43;;;;;;;11.20;8.82;;;;;;;26.61;100.00;96525.25;4928764;29;20070;-51
2021/08/22 07:32:13;;;;;;;11.10;9.23;;;;;;;26.23;100.00;96515.06;4923159;29;20079;-50
2021/08/22 07:34:41;;;;;;;11.38;8.55;;;;;;;25.77;100.00;96535.75;4910234;29;20086;-50
2021/08/22 07:37:10;;;;;;;11.45;8.50;;;;;;;25.70;100.00;96533.19;4911536;28;20051;-52
2021/08/22 07:39:38;;;;;;;10.13;8.30;;;;;;;25.55;100.00;96538.28;4931929;29;20047;-50
2021/08/22 07:42:09;;;;;;;9.88;7.97;;;;;;;26.89;100.00;96529.75;4936844;28;20426;-53
2021/08/22 07:44:38;;;;;;;8.18;7.32;;;;;;;27.39;100.00;96525.34;4945670;28;20073;-51
2021/08/22 07:47:06;;;;;;;9.60;6.90;;;;;;;27.02;100.00;96522.38;4947483;28;20097;-52
2021/08/22 07:49:36;;;;;;;10.13;7.60;;;;;;;27.88;100.00;96517.38;4952781;28;20085;-53
2021/08/22 07:52:05;;;;;;;9.73;6.45;;;;;;;27.20;100.00;96522.94;4946690;28;20083;-53
2021/08/22 07:54:33;;;;;;;7.78;5.95;;;;;;;27.74;100.00;96524.22;4943313;28;20070;-53
2021/08/22 07:57:02;;;;;;;6.63;5.93;;;;;;;27.93;100.00;96514.69;4945586;28;20071;-54
2021/08/22 07:59:30;;;;;;;7.95;5.50;;;;;;;28.71;97.33;96517.13;4947607;28;20066;-51
2021/08/22 08:01:59;;;;;;;7.03;5.63;;;;;;;29.07;89.85;96512.81;4942645;28;20091;-54
2021/08/22 08:04:27;;;;;;;6.75;5.32;;;;;;;28.04;96.64;96516.44;4931125;29;20071;-54
2021/08/22 08:06:57;;;;;;;7.38;5.20;;;;;;;28.04;100.00;96521.06;4926329;28;20131;-53
2021/08/22 08:09:25;;;;;;;6.10;5.18;;;;;;;28.00;98.72;96519.94;4928268;28;20067;-49
2021/08/22 08:11:54;;;;;;;6.60;5.07;;;;;;;28.73;90.40;96523.94;4930009;28;20526;-55
2021/08/22 08:14:22;;;;;;;6.05;5.30;;;;;;;27.19;100.00;96526.72;4929210;28;20074;-51
2021/08/22 08:16:51;;;;;;;6.55;5.82;;;;;;;28.13;100.00;96508.69;4929361;28;20092;-51
2021/08/22 08:19:20;;;;;;;5.75;4.43;;;;;;;28.75;86.38;96512.81;4927562;28;20166;-48
2021/08/22 08:21:48;;;;;;;8.70;4.72;;;;;;;27.86;93.10;96514.06;4931805;29;20067;-53
2021/08/22 08:24:18;;;;;;;6.22;4.78;;;;;;;28.85;93.43;96512.91;4939290;28;20067;-54
2021/08/22 08:26:46;;;;;;;7.97;4.85;;;;;;;28.72;84.59;96506.00;4945013;28;20077;-48
2021/08/22 08:29:14;;;;;;;5.72;4.55;;;;;;;29.48;78.36;96497.59;4945778;28;20075;-48
2021/08/22 08:31:43;;;;;;;5.55;4.50;;;;;;;29.73;76.14;96510.53;4944458;28;20097;-55
2021/08/22 08:34:11;;;;;;;4.95;4.20;;;;;;;28.04;92.75;96504.78;4929452;28;20071;-51
2021/08/22 08:36:40;;;;;;;5.38;4.13;;;;;;;28.22;92.10;96512.59;4938310;28;20073;-53
2021/08/22 08:39:08;;;;;;;6.63;4.65;;;;;;;28.15;95.80;96520.94;4934721;28;20063;-50
2021/08/22 08:41:38;;;;;;;6.32;4.65;;;;;;;29.66;82.50;96522.69;4931870;28;20073;-56
2021/08/22 08:44:06;;;;;;;6.30;4.93;;;;;;;29.04;85.43;96516.91;4944745;28;20078;-49
2021/08/22 08:46:36;;;;;;;5.80;4.25;;;;;;;29.58;80.12;96521.28;4945774;28;20091;-50
2021/08/22 08:49:06;;;;;;;5.65;4.20;;;;;;;28.52;85.50;96524.84;4945968;28;20079;-51
2021/08/22 08:51:45;;;;;;;7.93;4.50;;;;;;;29.45;75.78;96521.75;4945509;28;20474;-55
2021/08/22 08:54:13;;;;;;;5.68;4.63;;;;;;;29.13;80.21;96517.22;4940924;28;20070;-50
2021/08/22 08:56:43;;;;;;;4.78;4.13;;;;;;;29.32;82.32;96525.78;4933815;28;20071;-51
2021/08/22 08:59:12;;;;;;;5.38;4.30;;;;;;;28.36;91.23;96518.44;4929690;28;20090;-53
2021/08/22 09:01:40;;;;;;;4.53;3.92;;;;;;;28.49;99.16;96519.91;4946829;28;20639;-49
2021/08/22 09:04:25;;;;;;;4.57;3.47;;;;;;;28.93;81.26;96522.47;4942294;28;20508;-51
2021/08/22 09:07:50;;;;;;;4.53;3.63;;;;;;;28.25;80.64;96516.66;4942217;28;20098;-51
2021/08/22 09:10:48;;;;;;;4.88;3.58;;;;;;;29.19;80.13;96515.34;4900036;29;20075;-48
2021/08/22 09:14:02;;;;;;;4.82;3.50;;;;;;;29.86;74.03;96517.34;4926160;29;20098;-52
2021/08/22 09:17:30;;;;;;;4.97;3.67;;;;;;;29.13;83.24;96517.22;4929091;29;20602;-54
2021/08/22 09:20:47;;;;;;;6.68;3.28;;;;;;;29.65;71.77;96521.06;4867100;29;20131;-50
2021/08/22 09:27:05;;;;;;;4.60;3.50;;;;;;;28.96;76.41;96530.91;5068590;27;20680;-48
2021/08/22 09:30:16;;;;;;;4.25;3.40;;;;;;;27.78;87.75;96528.09;5035273;28;20068;-46
2021/08/22 09:33:19;;;;;;;4.70;3.47;;;;;;;27.98;81.40;96525.63;5036830;28;20073;-52
2021/08/22 09:36:33;;;;;;;3.85;2.88;;;;;;;29.06;80.17;96522.88;5029879;28;20468;-50
2021/08/22 09:39:38;;;;;;;4.40;3.00;;;;;;;28.50;78.29;96527.00;5011333;28;20065;-53
2021/08/22 09:42:57;;;;;;;3.70;3.30;;;;;;;29.38;69.60;96518.44;5038671;28;20045;-51
2021/08/22 09:46:08;;;;;;;3.43;2.90;;;;;;;28.00;78.14;96522.63;5026850;28;20073;-49
2021/08/22 09:49:29;;;;;;;4.10;3.40;;;;;;;28.48;73.90;96521.81;5029630;28;20527;-53
2021/08/22 09:52:27;;;;;;;3.85;3.00;;;;;;;28.78;74.78;96520.47;5036272;28;20065;-54
2021/08/22 09:55:38;;;;;;;5.05;3.60;;;;;;;27.90;80.19;96526.88;5003853;28;20065;-48
2021/08/22 09:58:44;;;;;;;5.47;3.38;;;;;;;29.49;63.42;96515.53;5022141;28;20112;-46
2021/08/22 10:01:44;;;;;;;3.55;3.00;;;;;;;29.86;65.21;96509.19;5030601;28;20109;-48
2021/08/22 10:04:48;;;;;;;4.05;3.30;;;;;;;29.24;66.23;96516.19;5038166;28;20096;-48
2021/08/22 10:07:25;;;;;;;4.60;3.67;;;;;;;29.08;69.54;96519.91;5024035;28;20098;-52
2021/08/22 10:09:57;;;;;;;4.45;3.50;;;;;;;28.13;73.63;96503.28;5036043;28;20064;-50
2021/08/22 10:12:25;;;;;;;4.35;3.63;;;;;;;29.92;59.13;96499.16;5036891;28;20532;-52
2021/08/22 10:14:53;;;;;;;3.92;3.30;;;;;;;30.49;58.69;96496.31;5036531;28;20068;-48
2021/08/22 10:17:22;;;;;;;4.35;3.22;;;;;;;29.80;59.49;96504.81;5042056;28;20080;-51
2021/08/22 10:19:53;;;;;;;4.97;3.70;;;;;;;30.58;58.92;96487.59;5034122;28;21552;-54
2021/08/22 10:22:33;;;;;;;4.18;3.28;;;;;;;29.36;66.56;96498.91;5038483;28;20608;-50
2021/08/22 10:25:03;;;;;;;3.72;3.10;;;;;;;30.60;58.63;96491.69;5035574;28;20083;-49
2021/08/22 10:27:48;;;;;;;5.57;3.38;;;;;;;30.20;53.96;96493.28;5036466;28;20079;-56
2021/08/22 10:30:18;;;;;;;4.13;3.70;;;;;;;30.89;53.08;96491.97;5032133;28;20079;-50
2021/08/22 10:33:05;;;;;;;;;;;;;;;30.59;57.43;96489.22;5037391;28;20073;-49
2021/08/22 10:35:35;;;;;;;4.10;3.38;;;;;;;29.10;62.93;96498.72;5035822;28;20134;-53
2021/08/22 10:38:23;;;;;;;;;;;;;;;29.39;61.16;96498.34;5023419;28;20073;-50
2021/08/22 10:40:51;;;;;;;4.03;3.58;;;;;;;29.75;58.13;96496.66;5021422;28;21282;-49
2021/08/22 10:43:41;;;;;;;4.57;3.75;;;;;;;29.76;61.44;96490.13;5024228;28;20076;-55
2021/08/22 10:46:10;;;;;;;5.00;3.40;;;;;;;29.76;60.63;96492.84;5023114;28;20084;-47
2021/08/22 10:48:49;;;;;;;6.05;3.80;;;;;;;29.54;64.77;96485.66;5019210;28;20080;-48
2021/08/22 10:51:20;;;;;;;5.00;3.20;;;;;;;30.03;56.43;96479.88;5017553;28;20081;-49
2021/08/22 10:53:50;;;;;;;4.82;3.70;;;;;;;31.05;55.10;96472.91;5004701;28;20072;-48
2021/08/22 10:56:38;;;;;;;4.00;3.47;;;;;;;30.76;61.23;96464.50;5025123;28;20076;-54
2021/08/22 10:59:11;;;;;;;4.60;3.70;;;;;;;30.11;55.25;96475.84;5019882;28;20441;-53
2021/08/22 11:01:42;;;;;;;3.97;3.53;;;;;;;31.14;55.64;96466.63;5024837;28;20093;-46
2021/08/22 11:04:22;;;;;;;4.07;3.10;;;;;;;30.76;52.98;96465.31;5017916;28;20075;-50
2021/08/22 11:06:56;;;;;;;4.45;3.50;;;;;;;32.40;46.56;96462.81;5019225;28;20533;-53
2021/08/22 11:09:42;;;;;;;4.72;3.13;;;;;;;31.03;52.28;96456.03;5022346;28;20065;-51
2021/08/22 11:12:27;;;;;;;5.60;3.63;;;;;;;31.48;49.89;96452.38;5026336;28;20069;-52
2021/08/22 11:14:57;;;;;;;4.03;3.25;;;;;;;30.79;55.62;96459.31;5024257;28;20087;-53
2021/08/22 11:17:26;;;;;;;4.13;3.25;;;;;;;30.57;57.39;96456.03;5018476;28;20074;-48
2021/08/22 11:20:08;;;;;;;5.90;3.20;;;;;;;29.93;60.76;96458.09;5021322;28;20107;-50
2021/08/22 11:22:38;;;;;;;5.45;3.30;;;;;;;29.83;61.52;96459.97;5021393;28;20491;-53
2021/08/22 11:25:07;;;;;;;;;;;;;;;29.04;65.89;96462.59;5021525;28;20069;-52
2021/08/22 11:27:35;;;;;;;3.85;3.08;;;;;;;28.54;74.84;96460.28;5016640;28;19952;-51
2021/08/22 11:30:06;;;;;;;5.05;3.60;;;;;;;28.53;72.62;96458.66;5026007;28;20069;-49
2021/08/22 11:32:35;;;;;;;9.82;3.85;;;;;;;28.59;77.63;96452.16;5018406;28;20092;-51
2021/08/22 11:35:11;;;;;;;3.90;3.08;;;;;;;29.55;68.74;96456.56;5025431;28;20171;-48
2021/08/22 11:37:43;;;;;;;3.95;3.47;;;;;;;28.75;73.36;96456.66;5022149;28;20080;-51
2021/08/22 11:40:13;;;;;;;5.95;3.67;;;;;;;29.23;73.73;96454.00;5020327;28;20065;-50
2021/08/22 11:42:45;;;;;;;5.25;3.47;;;;;;;28.31;76.83;96450.56;5017788;28;20521;-47
2021/08/22 11:45:16;;;;;;;3.85;3.40;;;;;;;28.14;81.06;96445.25;5018494;28;20092;-49
2021/08/22 11:47:45;;;;;;;4.57;3.70;;;;;;;28.71;76.14;96441.97;5015825;28;20084;-47
2021/08/22 11:50:15;;;;;;;4.10;3.53;;;;;;;28.74;75.69;96438.72;4999459;28;20086;-52